Time;durP1;ratioP1;P1;durP2;ratioP2;P2;SDS_P1;SDS_P2;PMS_P1;PMS_P2;Temp;Humidity;BMP_temperature;BMP_pressure;BME280_temperature;BME280_humidity;BME280_pressure;Samples;Min_cycle;Max_cycle;Signal;HPM_P1;HPM_P2
2021/04/22 00:04:04;;;;;;;20.80;14.85;;;;;;;8.18;76.43;98361.80;239801;1196;23102;-78
2021/04/22 00:09:08;;;;;;;28.10;17.75;;;;;;;8.06;76.95;98359.52;239691;1196;23133;-79
2021/04/22 00:14:12;;;;;;;26.95;17.65;;;;;;;7.92;76.64;98359.38;239749;1199;26121;-79
2021/04/22 00:19:15;;;;;;;29.63;17.53;;;;;;;7.78;76.98;98363.75;240225;1195;23142;-79
2021/04/22 00:24:18;;;;;;;32.80;20.30;;;;;;;7.65;77.11;98362.52;239941;1199;24166;-78
2021/04/22 00:29:20;;;;;;;33.70;19.70;;;;;;;7.53;77.35;98355.69;239638;1199;23119;-78
2021/04/22 00:34:23;;;;;;;31.80;20.00;;;;;;;7.41;77.29;98360.56;239962;1196;23120;-78
2021/04/22 00:39:27;;;;;;;32.33;20.43;;;;;;;7.31;77.77;98357.98;239644;1195;23132;-79
2021/04/22 00:44:32;;;;;;;37.20;21.95;;;;;;;7.22;78.30;98356.97;240027;1196;23125;-78
2021/04/22 00:49:34;;;;;;;26.30;17.90;;;;;;;7.15;78.74;98360.74;239316;1199;23119;-78
2021/04/22 00:54:39;;;;;;;29.13;19.80;;;;;;;7.12;78.80;98347.17;239597;1196;23119;-77
2021/04/22 00:59:42;;;;;;;29.57;17.80;;;;;;;7.05;78.46;98352.83;239893;1196;26853;-78
2021/04/22 01:04:48;;;;;;;29.73;18.63;;;;;;;6.95;78.46;98344.88;239970;1199;23191;-79
2021/04/22 01:09:51;;;;;;;28.90;19.17;;;;;;;6.85;78.93;98348.38;240244;1196;23074;-78
2021/04/22 01:14:55;;;;;;;30.97;20.77;;;;;;;6.79;78.55;98342.28;240194;1196;27316;-78
2021/04/22 01:19:58;;;;;;;34.10;22.27;;;;;;;6.76;79.26;98352.70;239669;1199;23121;-79
2021/04/22 01:25:01;;;;;;;34.40;21.70;;;;;;;6.75;79.05;98351.89;240196;1196;23102;-78
2021/04/22 01:30:09;;;;;;;31.50;21.80;;;;;;;6.67;79.46;98352.45;239556;1196;23106;-78
2021/04/22 01:35:20;;;;;;;39.47;24.87;;;;;;;6.61;79.71;98358.88;239819;1196;23139;-79
2021/04/22 01:40:24;;;;;;;42.50;25.53;;;;;;;6.59;79.95;98348.51;239923;1195;23118;-79
2021/04/22 01:45:28;;;;;;;39.90;24.50;;;;;;;6.59;80.03;98361.00;240144;1195;23135;-78
2021/04/22 01:50:35;;;;;;;43.80;28.45;;;;;;;6.54;80.20;98353.84;239992;1195;23142;-78
2021/04/22 01:55:40;;;;;;;43.75;26.50;;;;;;;6.46;80.50;98352.55;240331;1195;23104;-77
2021/04/22 02:00:46;;;;;;;39.15;25.75;;;;;;;6.44;80.23;98349.34;239900;1196;23141;-79
2021/04/22 02:05:49;;;;;;;38.75;23.80;;;;;;;6.41;80.19;98344.58;240144;1196;23173;-78
2021/04/22 02:10:51;;;;;;;36.60;23.30;;;;;;;6.38;80.19;98336.33;239896;1196;23871;-77
2021/04/22 02:15:54;;;;;;;34.40;22.35;;;;;;;6.35;80.55;98337.66;239774;1196;23135;-78
2021/04/22 02:20:56;;;;;;;33.25;21.85;;;;;;;6.36;80.38;98330.49;239787;1195;23164;-80
2021/04/22 02:25:59;;;;;;;35.77;22.43;;;;;;;6.37;80.80;98335.55;240231;1196;23122;-78
2021/04/22 02:31:02;;;;;;;30.05;19.65;;;;;;;6.40;80.94;98336.87;239614;1196;23117;-78
2021/04/22 02:36:07;;;;;;;31.13;20.70;;;;;;;6.42;80.30;98338.20;239767;1196;23118;-78
2021/04/22 02:41:10;;;;;;;27.13;19.23;;;;;;;6.41;80.15;98338.44;239994;1196;24719;-78
2021/04/22 02:46:13;;;;;;;30.30;21.40;;;;;;;6.37;80.37;98340.86;239800;1194;23121;-79
2021/04/22 02:51:16;;;;;;;31.67;22.50;;;;;;;6.36;80.38;98365.08;239792;1196;23114;-78
2021/04/22 02:56:18;;;;;;;28.85;20.60;;;;;;;6.30;80.10;98362.42;240137;1196;23133;-78
2021/04/22 03:01:21;;;;;;;27.27;18.80;;;;;;;6.23;80.04;98361.91;240242;1196;23120;-78
2021/04/22 03:06:24;;;;;;;20.47;15.70;;;;;;;6.18;80.47;98364.58;240233;1196;23146;-78
2021/04/22 03:11:27;;;;;;;23.83;15.87;;;;;;;6.12;79.88;98369.11;239813;1196;23126;-79
2021/04/22 03:16:30;;;;;;;20.70;14.30;;;;;;;6.10;80.05;98370.44;239567;1196;23119;-78
2021/04/22 03:21:33;;;;;;;22.27;15.87;;;;;;;6.05;80.37;98365.93;239794;1196;23247;-78
2021/04/22 03:26:36;;;;;;;22.57;16.53;;;;;;;6.00;80.33;98363.27;240193;1196;23113;-78
2021/04/22 03:31:39;;;;;;;20.35;14.40;;;;;;;5.95;80.42;98372.03;240177;1196;23114;-79
2021/04/22 03:36:42;;;;;;;14.80;11.47;;;;;;;5.94;80.70;98378.41;239881;1196;23089;-78
2021/04/22 03:41:45;;;;;;;20.87;15.20;;;;;;;5.90;80.33;98385.31;240175;1195;23160;-79
2021/04/22 03:46:47;;;;;;;20.80;15.07;;;;;;;5.89;80.37;98388.25;240314;1196;23130;-77
2021/04/22 03:51:50;;;;;;;17.50;11.40;;;;;;;5.88;80.49;98398.09;240116;1196;23105;-78
2021/04/22 03:56:52;;;;;;;20.50;14.45;;;;;;;5.81;79.68;98408.20;239589;1196;23111;-79
2021/04/22 04:01:55;;;;;;;23.73;16.07;;;;;;;5.75;79.77;98423.35;239594;1195;23250;-78
2021/04/22 04:06:58;;;;;;;23.65;15.90;;;;;;;5.73;80.27;98416.70;239691;1199;24584;-78
2021/04/22 04:12:01;;;;;;;20.05;14.75;;;;;;;5.76;80.20;98426.80;239560;1199;23108;-78
2021/04/22 04:17:05;;;;;;;19.35;14.75;;;;;;;5.76;80.59;98430.23;240029;1196;23340;-78
2021/04/22 04:22:08;;;;;;;23.60;17.47;;;;;;;5.81;80.14;98437.44;239749;1196;23161;-78
2021/04/22 04:27:11;;;;;;;20.70;15.00;;;;;;;5.89;80.61;98452.05;239444;1196;23136;-78
2021/04/22 04:32:14;;;;;;;22.20;15.87;;;;;;;5.97;80.42;98448.87;239747;1196;23142;-79
2021/04/22 04:37:17;;;;;;;16.83;13.67;;;;;;;6.10;80.19;98453.70;240102;1196;23115;-79
2021/04/22 04:42:20;;;;;;;20.77;15.17;;;;;;;6.22;80.28;98461.39;240107;1195;23178;-78
2021/04/22 04:47:23;;;;;;;17.87;14.33;;;;;;;6.43;80.54;98464.03;240387;1196;23283;-79
2021/04/22 04:52:25;;;;;;;19.35;13.35;;;;;;;6.65;80.45;98475.17;239894;1196;26318;-78
2021/04/22 04:57:28;;;;;;;20.80;14.60;;;;;;;6.86;79.80;98491.10;239963;1199;24904;-78
2021/04/22 05:02:33;;;;;;;18.90;14.20;;;;;;;7.10;79.70;98488.62;239951;1199;23132;-78
2021/04/22 05:07:42;;;;;;;19.35;14.48;;;;;;;7.36;79.54;98489.31;240291;1196;23186;-78
2021/04/22 05:12:45;;;;;;;20.25;14.95;;;;;;;7.62;79.44;98501.71;240391;1194;23123;-79
2021/04/22 05:17:47;;;;;;;17.37;12.97;;;;;;;7.85;79.10;98511.71;240112;1195;23117;-78
2021/04/22 05:22:50;;;;;;;20.45;13.50;;;;;;;8.00;78.77;98521.49;240543;1195;23119;-79
2021/04/22 05:27:52;;;;;;;16.63;12.10;;;;;;;8.01;78.61;98525.73;240251;1196;23212;-78
2021/04/22 05:32:55;;;;;;;17.10;11.73;;;;;;;8.02;77.97;98530.00;240162;1196;23212;-79
2021/04/22 05:37:58;;;;;;;18.15;13.00;;;;;;;8.01;77.15;98531.06;239572;1196;23842;-77
2021/04/22 05:43:05;;;;;;;19.30;13.80;;;;;;;8.03;77.47;98538.78;240184;1195;23597;-79
2021/04/22 05:48:08;;;;;;;17.37;12.57;;;;;;;8.07;77.94;98552.38;239880;1197;27839;-78
2021/04/22 05:53:10;;;;;;;19.57;13.30;;;;;;;8.07;77.28;98550.50;240127;1196;23131;-78
2021/04/22 05:58:14;;;;;;;18.77;12.40;;;;;;;8.01;77.01;98560.41;239910;1196;23231;-78
2021/04/22 06:03:18;;;;;;;16.45;12.25;;;;;;;7.95;77.25;98569.53;240290;1196;23135;-78
2021/04/22 06:08:20;;;;;;;20.40;13.60;;;;;;;7.85;77.50;98580.27;240201;1196;23131;-78
2021/04/22 06:13:24;;;;;;;19.73;12.93;;;;;;;7.77;77.04;98586.16;240459;1196;23254;-77
2021/04/22 06:18:27;;;;;;;17.13;12.67;;;;;;;7.67;77.50;98593.13;240063;1196;23116;-77
2021/04/22 06:23:29;;;;;;;13.25;8.95;;;;;;;7.47;77.30;98620.67;239869;1195;22938;-77
2021/04/22 06:28:32;;;;;;;9.40;7.25;;;;;;;7.24;76.66;98631.92;239563;1195;26134;-78
2021/04/22 06:33:35;;;;;;;10.03;7.27;;;;;;;7.06;75.82;98627.95;239693;1196;23177;-78
2021/04/22 06:38:38;;;;;;;11.07;7.67;;;;;;;6.94;76.39;98637.02;239910;1195;23128;-78
2021/04/22 06:43:42;;;;;;;11.20;6.60;;;;;;;6.85;76.36;98666.05;240199;1195;23179;-78
2021/04/22 06:48:45;;;;;;;11.17;6.83;;;;;;;6.72;75.79;98653.25;240070;1196;23237;-77
2021/04/22 06:53:48;;;;;;;9.47;6.23;;;;;;;6.57;75.47;98675.33;240048;1196;23117;-77
2021/04/22 06:58:54;;;;;;;10.70;7.10;;;;;;;6.32;76.07;98681.39;240438;1196;24582;-78
2021/04/22 07:03:57;;;;;;;11.50;7.60;;;;;;;6.09;76.81;98686.13;240931;1199;23115;-78
2021/04/22 07:09:02;;;;;;;11.67;6.83;;;;;;;5.95;77.15;98682.33;240832;1196;23105;-79
2021/04/22 07:14:05;;;;;;;10.45;6.30;;;;;;;5.82;77.32;98699.56;240207;1196;23121;-78
2021/04/22 07:19:08;;;;;;;10.13;6.60;;;;;;;5.78;77.72;98690.50;239949;1196;23197;-78
2021/04/22 07:24:11;;;;;;;9.47;6.33;;;;;;;5.71;77.84;98687.25;240193;1196;23122;-79
2021/04/22 07:29:15;;;;;;;10.45;5.65;;;;;;;5.59;77.68;98706.86;240590;1196;23183;-79
2021/04/22 07:34:17;;;;;;;7.33;4.70;;;;;;;5.50;78.21;98729.67;241204;1194;23138;-80
2021/04/22 07:39:20;;;;;;;10.30;6.00;;;;;;;5.41;78.32;98736.50;241067;1196;23127;-79
2021/04/22 07:44:23;;;;;;;6.90;5.50;;;;;;;5.22;78.96;98742.22;240609;1196;23112;-75
2021/04/22 07:49:26;;;;;;;7.70;5.70;;;;;;;5.01;79.30;98757.18;239600;1195;23251;-77
2021/04/22 07:54:29;;;;;;;10.77;5.83;;;;;;;4.85;79.52;98764.18;239586;1196;23126;-79
2021/04/22 07:59:31;;;;;;;13.77;5.27;;;;;;;4.79;80.19;98775.81;239516;1196;23760;-76
2021/04/22 08:04:35;;;;;;;10.60;4.35;;;;;;;4.63;79.71;98770.34;239887;1194;23200;-76
2021/04/22 08:09:38;;;;;;;5.70;3.30;;;;;;;4.43;79.96;98783.38;239885;1196;23561;-76
2021/04/22 08:14:41;;;;;;;7.70;4.30;;;;;;;4.37;80.73;98773.77;240136;1196;23135;-77
2021/04/22 08:19:44;;;;;;;9.60;4.50;;;;;;;4.44;80.83;98774.38;240555;1195;23084;-77
2021/04/22 08:24:47;;;;;;;8.00;4.20;;;;;;;4.62;81.07;98789.17;240260;1196;23115;-76
2021/04/22 08:29:49;;;;;;;11.00;5.15;;;;;;;4.80;80.74;98793.34;239887;1195;23142;-78
2021/04/22 08:34:53;;;;;;;8.85;4.25;;;;;;;5.04;80.59;98808.98;240553;1196;23115;-78
2021/04/22 08:39:55;;;;;;;7.17;3.87;;;;;;;5.17;79.79;98792.63;239686;1196;23269;-76
2021/04/22 08:45:00;;;;;;;6.33;4.03;;;;;;;5.14;78.88;98790.48;240315;1195;23125;-78
2021/04/22 08:50:06;;;;;;;7.87;4.50;;;;;;;5.17;78.26;98795.28;240915;1196;23230;-78
2021/04/22 08:55:24;;;;;;;8.50;4.95;;;;;;;5.43;78.37;98795.52;240522;1196;23119;-77
2021/04/22 09:00:35;;;;;;;12.25;5.55;;;;;;;5.74;77.55;98803.71;240788;1196;23189;-80
2021/04/22 09:05:38;;;;;;;10.50;5.90;;;;;;;6.02;77.52;98799.92;240917;1195;25978;-79
2021/04/22 09:10:41;;;;;;;7.50;4.83;;;;;;;6.34;77.06;98805.13;240533;1196;23115;-78
2021/04/22 09:15:48;;;;;;;7.83;4.67;;;;;;;6.66;76.43;98796.20;240458;1196;23135;-78
2021/04/22 09:21:02;;;;;;;7.03;5.10;;;;;;;7.06;75.93;98795.76;240304;1196;23152;-77
2021/04/22 09:26:07;;;;;;;7.17;4.60;;;;;;;7.25;73.44;98790.73;240532;1196;23108;-77
2021/04/22 09:31:22;;;;;;;6.10;3.47;;;;;;;7.36;72.46;98787.00;240404;1195;23149;-77
2021/04/22 09:36:26;;;;;;;7.27;4.40;;;;;;;7.43;71.23;98794.70;240612;1195;23180;-78
2021/04/22 09:41:29;;;;;;;7.90;4.70;;;;;;;7.38;70.69;98790.18;240061;1196;25993;-78
2021/04/22 09:46:33;;;;;;;7.03;3.57;;;;;;;7.49;69.15;98798.98;239880;1196;23237;-78
2021/04/22 09:51:37;;;;;;;6.30;3.40;;;;;;;7.66;66.04;98802.16;240411;1196;23131;-78
2021/04/22 09:56:42;;;;;;;5.70;3.07;;;;;;;7.87;65.93;98821.59;240109;1196;23130;-79
2021/04/22 10:02:00;;;;;;;5.30;2.50;;;;;;;8.04;63.30;98807.98;240233;1196;23166;-77
2021/04/22 10:07:16;;;;;;;5.77;2.57;;;;;;;8.14;61.77;98811.68;241418;1196;23167;-77
2021/04/22 10:12:34;;;;;;;6.30;2.40;;;;;;;8.17;60.40;98811.13;241281;1196;23109;-76
2021/04/22 10:17:37;;;;;;;6.53;2.53;;;;;;;8.20;61.07;98818.63;240590;1195;23125;-77
2021/04/22 10:22:44;;;;;;;5.30;3.00;;;;;;;8.19;60.17;98822.34;240244;1196;23136;-77
2021/04/22 10:27:47;;;;;;;8.50;3.40;;;;;;;7.93;59.89;98822.39;240402;1196;23258;-77
2021/04/22 10:32:52;;;;;;;6.03;3.23;;;;;;;7.57;59.29;98830.44;240017;1196;23129;-78
2021/04/22 10:37:55;;;;;;;6.40;3.40;;;;;;;7.26;59.88;98833.09;240112;1196;23244;-77
2021/04/22 10:43:01;;;;;;;7.03;3.00;;;;;;;7.21;61.23;98819.75;240344;1196;23145;-77
2021/04/22 10:48:06;;;;;;;6.40;3.07;;;;;;;7.45;61.15;98811.24;240492;1195;23128;-77
2021/04/22 10:53:13;;;;;;;6.83;3.50;;;;;;;7.68;60.82;98815.22;240912;1197;23645;-77
2021/04/22 10:58:23;;;;;;;6.60;3.43;;;;;;;7.94;57.20;98810.66;239980;1196;23240;-77
2021/04/22 11:03:38;;;;;;;9.35;3.28;;;;;;;8.21;58.98;98801.52;240218;1196;23112;-77
2021/04/22 11:08:50;;;;;;;5.03;2.47;;;;;;;8.34;57.97;98806.28;240064;1196;26214;-76
2021/04/22 11:14:09;;;;;;;7.45;3.35;;;;;;;8.42;58.13;98798.78;240202;1196;23112;-77
2021/04/22 11:19:16;;;;;;;8.75;3.40;;;;;;;8.48;56.86;98803.05;240962;1195;23121;-79
2021/04/22 11:24:31;;;;;;;7.50;3.03;;;;;;;8.47;57.47;98798.80;239650;1196;24577;-77
2021/04/22 11:29:52;;;;;;;8.70;3.00;;;;;;;8.60;58.80;98797.41;239862;1196;27217;-77
2021/04/22 11:35:13;;;;;;;5.20;3.10;;;;;;;8.80;56.84;98783.95;239953;1196;24766;-77
2021/04/22 11:40:19;;;;;;;8.37;3.73;;;;;;;8.92;57.69;98786.27;240043;1195;23134;-77
2021/04/22 11:45:26;;;;;;;7.03;3.70;;;;;;;9.02;57.71;98786.23;240171;1196;23142;-77
2021/04/22 11:50:43;;;;;;;8.15;3.20;;;;;;;9.20;58.04;98776.72;240525;1194;23133;-77
2021/04/22 11:55:52;;;;;;;5.67;2.57;;;;;;;9.40;56.57;98773.11;239829;1196;23318;-77
2021/04/22 12:01:05;;;;;;;4.87;2.80;;;;;;;9.54;56.54;98761.74;240071;1196;23209;-77
2021/04/22 12:06:14;;;;;;;6.25;2.70;;;;;;;9.65;55.31;98770.48;239994;1196;23144;-77
2021/04/22 12:11:23;;;;;;;6.83;3.10;;;;;;;9.63;54.19;98764.63;239783;1196;23112;-76
2021/04/22 12:16:26;;;;;;;5.90;2.60;;;;;;;9.71;54.04;98762.13;240125;1196;23130;-76
2021/04/22 12:21:30;;;;;;;7.05;3.60;;;;;;;9.81;54.61;98758.55;240007;1196;26387;-77
2021/04/22 12:26:35;;;;;;;9.37;2.93;;;;;;;9.76;53.72;98753.25;240307;1196;23186;-77
2021/04/22 12:31:48;;;;;;;5.53;3.33;;;;;;;9.85;54.31;98740.04;240775;1194;26162;-78
2021/04/22 12:37:13;;;;;;;6.67;3.40;;;;;;;9.71;53.86;98746.08;240585;1195;23250;-76
2021/04/22 12:42:25;;;;;;;7.30;4.35;;;;;;;9.67;54.37;98750.40;240379;1196;24610;-78
2021/04/22 12:47:52;;;;;;;5.90;3.77;;;;;;;9.54;53.64;98749.19;239911;1196;23180;-78
2021/04/22 12:53:16;;;;;;;8.70;3.70;;;;;;;9.68;53.82;98741.30;240188;1195;23119;-78
2021/04/22 12:58:23;;;;;;;7.20;3.60;;;;;;;9.75;52.33;98751.64;240116;1196;23265;-77
2021/04/22 13:03:30;;;;;;;7.30;3.40;;;;;;;9.77;52.76;98744.15;240872;1196;23102;-77
2021/04/22 13:08:34;;;;;;;10.10;4.40;;;;;;;9.78;52.48;98744.94;240786;1196;23160;-78
2021/04/22 13:13:41;;;;;;;5.90;3.60;;;;;;;9.64;51.83;98739.45;239948;1196;24727;-75
2021/04/22 13:18:47;;;;;;;5.57;2.77;;;;;;;9.75;51.50;98749.78;240181;1196;23111;-79
2021/04/22 13:23:53;;;;;;;5.60;3.00;;;;;;;9.90;50.60;98737.32;240394;1196;23158;-77
2021/04/22 13:29:10;;;;;;;9.33;3.43;;;;;;;9.98;50.88;98739.38;240371;1196;26111;-78
2021/04/22 13:34:19;;;;;;;6.15;2.70;;;;;;;10.10;50.28;98738.95;240422;1195;23108;-82
2021/04/22 13:39:33;;;;;;;9.65;3.50;;;;;;;10.18;49.14;98742.89;240469;1196;23285;-77
2021/04/22 13:44:39;;;;;;;6.30;3.20;;;;;;;10.10;49.55;98742.45;239786;1195;23129;-82
2021/04/22 13:49:44;;;;;;;6.55;2.75;;;;;;;10.08;49.04;98743.81;240374;1199;27361;-79
2021/04/22 13:54:51;;;;;;;6.65;2.80;;;;;;;10.06;48.00;98725.36;240085;1196;23363;-78
2021/04/22 14:00:02;;;;;;;5.97;2.80;;;;;;;10.11;46.53;98729.84;240658;1196;23112;-78
2021/04/22 14:05:17;;;;;;;5.45;2.60;;;;;;;10.10;47.31;98718.36;240889;1196;27494;-77
2021/04/22 14:10:31;;;;;;;3.45;2.10;;;;;;;10.17;45.37;98727.91;240800;1196;23138;-77
2021/04/22 14:15:34;;;;;;;3.83;2.07;;;;;;;10.15;45.60;98727.41;240201;1199;23122;-77
2021/04/22 14:20:37;;;;;;;6.90;3.20;;;;;;;10.22;46.54;98722.50;240213;1196;23564;-78
2021/04/22 14:25:41;;;;;;;6.25;3.00;;;;;;;10.34;47.41;98722.07;240064;1196;23401;-78
2021/04/22 14:30:44;;;;;;;5.70;3.50;;;;;;;10.47;46.91;98734.79;239639;1196;23137;-78
2021/04/22 14:35:46;;;;;;;4.55;3.05;;;;;;;10.52;48.04;98717.84;239888;1196;23280;-78
2021/04/22 14:40:49;;;;;;;6.50;2.70;;;;;;;10.66;48.14;98717.92;240811;1196;23137;-77
2021/04/22 14:45:51;;;;;;;5.17;2.73;;;;;;;10.69;46.26;98718.16;240185;1195;23137;-79
2021/04/22 14:50:54;;;;;;;3.83;2.00;;;;;;;10.71;45.06;98721.33;239847;1196;23270;-78
2021/04/22 14:55:57;;;;;;;4.37;2.70;;;;;;;10.66;44.68;98736.67;239966;1196;23115;-78
2021/04/22 15:01:01;;;;;;;4.80;2.50;;;;;;;10.64;44.06;98736.97;240082;1198;23119;-78
2021/04/22 15:06:04;;;;;;;3.80;2.30;;;;;;;10.62;44.91;98731.12;240495;1196;23120;-79
2021/04/22 15:11:07;;;;;;;4.25;2.35;;;;;;;10.67;44.58;98722.98;240400;1195;23152;-78
2021/04/22 15:16:11;;;;;;;7.53;2.50;;;;;;;10.57;43.87;98726.61;239912;1196;23118;-77
2021/04/22 15:21:14;;;;;;;4.47;2.47;;;;;;;10.50;43.02;98730.75;239947;1195;23285;-79
2021/04/22 15:26:17;;;;;;;5.93;2.67;;;;;;;10.52;44.71;98729.38;240017;1196;23109;-78
2021/04/22 15:31:23;;;;;;;6.17;2.23;;;;;;;10.56;44.74;98733.08;239904;1196;23115;-78
2021/04/22 15:36:26;;;;;;;6.10;2.50;;;;;;;10.50;44.09;98733.42;240294;1196;23408;-78
2021/04/22 15:41:29;;;;;;;5.25;2.70;;;;;;;10.43;43.56;98736.45;240115;1196;23155;-79
2021/04/22 15:46:33;;;;;;;6.80;2.80;;;;;;;10.34;44.79;98735.45;240564;1196;23169;-78
2021/04/22 15:51:35;;;;;;;4.37;2.77;;;;;;;10.30;45.67;98743.28;240540;1196;23132;-78
2021/04/22 15:56:39;;;;;;;6.07;3.00;;;;;;;10.18;46.03;98745.57;240118;1194;23125;-79
2021/04/22 16:01:42;;;;;;;6.17;2.83;;;;;;;10.01;45.85;98762.88;240356;1196;23154;-78
2021/04/22 16:06:45;;;;;;;4.40;2.70;;;;;;;9.91;46.29;98763.00;240342;1196;25968;-79
2021/04/22 16:11:48;;;;;;;5.80;2.60;;;;;;;9.88;45.99;98784.98;239997;1196;23286;-79
2021/04/22 16:16:51;;;;;;;5.10;2.40;;;;;;;9.85;46.46;98789.02;240171;1196;23443;-78
2021/04/22 16:21:54;;;;;;;4.00;2.35;;;;;;;9.84;45.01;98789.30;240267;1195;23098;-78
2021/04/22 16:26:57;;;;;;;2.87;2.20;;;;;;;9.82;45.96;98791.45;240537;1196;23146;-79
2021/04/22 16:31:59;;;;;;;5.03;2.57;;;;;;;9.69;45.77;98790.23;240046;1195;23111;-78
2021/04/22 16:37:02;;;;;;;7.30;2.43;;;;;;;9.50;46.23;98803.49;240340;1196;23084;-79
2021/04/22 16:42:05;;;;;;;4.90;2.40;;;;;;;9.34;46.81;98800.16;240331;1195;23221;-79
2021/04/22 16:47:07;;;;;;;5.17;2.27;;;;;;;9.16;46.12;98804.30;241200;1196;23104;-79
2021/04/22 16:52:10;;;;;;;4.83;2.13;;;;;;;9.01;45.92;98807.85;240558;1195;23088;-79
2021/04/22 16:57:31;;;;;;;6.27;2.90;;;;;;;8.82;46.17;98810.38;240334;1196;23119;-78
2021/04/22 17:02:35;;;;;;;7.40;3.03;;;;;;;8.61;46.08;98807.81;240546;1195;23147;-79
2021/04/22 17:07:41;;;;;;;9.20;3.23;;;;;;;8.44;46.46;98821.47;240496;1196;23383;-78
2021/04/22 17:12:45;;;;;;;7.97;2.90;;;;;;;8.28;46.85;98828.73;240594;1195;23197;-78
2021/04/22 17:17:49;;;;;;;6.90;3.77;;;;;;;8.13;47.05;98831.42;240179;1194;23239;-79
2021/04/22 17:22:53;;;;;;;6.93;3.50;;;;;;;7.99;47.30;98841.88;241076;1195;23087;-79
2021/04/22 17:27:58;;;;;;;5.50;3.07;;;;;;;7.85;47.93;98846.96;240955;1195;23125;-79
2021/04/22 17:33:03;;;;;;;8.20;3.20;;;;;;;7.74;48.14;98850.68;240715;1196;23096;-79
2021/04/22 17:38:09;;;;;;;10.00;3.63;;;;;;;7.65;48.66;98850.42;240842;1194;23131;-79
2021/04/22 17:43:15;;;;;;;9.20;3.87;;;;;;;7.60;48.79;98866.44;240889;1196;23114;-79
2021/04/22 17:48:18;;;;;;;7.10;3.50;;;;;;;7.54;49.36;98865.61;241131;1196;23099;-79
2021/04/22 17:53:27;;;;;;;7.90;3.40;;;;;;;7.51;49.23;98874.14;241283;1196;23358;-79
2021/04/22 17:58:31;;;;;;;8.35;3.70;;;;;;;7.46;49.21;98888.27;240851;1196;23130;-80
2021/04/22 18:03:35;;;;;;;8.33;3.30;;;;;;;7.41;49.47;98888.25;240889;1196;23132;-79
2021/04/22 18:08:39;;;;;;;7.03;3.50;;;;;;;7.39;49.95;98897.58;240944;1195;23128;-79
2021/04/22 18:13:43;;;;;;;7.87;3.90;;;;;;;7.36;50.21;98907.72;241011;1196;23146;-79
2021/04/22 18:18:47;;;;;;;10.53;4.00;;;;;;;7.33;50.73;98910.91;240788;1196;23148;-80
2021/04/22 18:23:51;;;;;;;7.63;3.30;;;;;;;7.29;50.68;98917.01;241025;1196;23420;-79
2021/04/22 18:28:55;;;;;;;8.20;3.70;;;;;;;7.27;51.08;98922.60;240566;1196;23105;-79
2021/04/22 18:33:58;;;;;;;9.87;4.60;;;;;;;7.28;50.87;98939.41;240981;1196;23099;-78
2021/04/22 18:39:02;;;;;;;10.33;4.57;;;;;;;7.30;50.79;98940.76;240846;1194;23108;-79
2021/04/22 18:44:05;;;;;;;8.87;4.03;;;;;;;7.32;51.31;98938.62;241590;1195;23211;-80
2021/04/22 18:49:08;;;;;;;9.93;3.23;;;;;;;7.28;50.94;98934.08;241054;1196;23109;-80
2021/04/22 18:54:30;;;;;;;5.90;2.93;;;;;;;7.21;50.34;98939.66;241035;1195;23335;-79
2021/04/22 18:59:34;;;;;;;5.80;3.10;;;;;;;7.09;50.83;98945.19;240941;1196;23144;-81
2021/04/22 19:04:37;;;;;;;7.90;4.27;;;;;;;6.93;51.60;98948.88;241444;1196;23099;-79
2021/04/22 19:09:41;;;;;;;14.10;6.40;;;;;;;6.75;52.20;98950.12;241002;1195;23166;-80
2021/04/22 19:14:45;;;;;;;11.27;5.67;;;;;;;6.61;52.22;98955.89;240912;1196;23221;-78
2021/04/22 19:19:50;;;;;;;14.60;6.33;;;;;;;6.46;53.00;98956.63;240483;1196;23255;-79
2021/04/22 19:24:54;;;;;;;13.25;5.45;;;;;;;6.32;53.69;98966.91;240830;1196;23126;-79
2021/04/22 19:29:57;;;;;;;11.95;5.05;;;;;;;6.18;53.99;98965.71;240956;1196;23286;-79
2021/04/22 19:35:00;;;;;;;9.95;4.50;;;;;;;6.03;54.13;98974.39;241185;1195;26035;-79
2021/04/22 19:40:07;;;;;;;13.20;5.30;;;;;;;5.90;54.51;98985.40;241320;1195;23147;-80
2021/04/22 19:45:12;;;;;;;12.60;6.23;;;;;;;5.74;54.37;98998.55;241266;1196;23142;-79
2021/04/22 19:50:18;;;;;;;15.97;6.57;;;;;;;5.63;54.57;98994.19;241260;1194;23794;-79
2021/04/22 19:55:25;;;;;;;15.77;5.83;;;;;;;5.51;54.74;98999.63;241199;1196;23242;-80
2021/04/22 20:00:27;;;;;;;8.85;4.25;;;;;;;5.44;54.90;99012.30;240983;1196;23101;-80
2021/04/22 20:05:30;;;;;;;13.90;4.60;;;;;;;5.40;55.23;99008.53;241312;1196;23244;-78
2021/04/22 20:10:35;;;;;;;8.75;4.30;;;;;;;5.36;55.31;99018.88;240995;1196;23183;-79
2021/04/22 20:15:38;;;;;;;8.40;4.03;;;;;;;5.30;55.55;99019.84;241180;1196;27286;-79
2021/04/22 20:20:40;;;;;;;25.43;4.70;;;;;;;5.24;56.17;99023.50;241027;1196;23100;-79
2021/04/22 20:25:45;;;;;;;9.77;3.87;;;;;;;5.15;56.55;99028.45;241017;1196;23126;-80
2021/04/22 20:30:47;;;;;;;12.45;4.30;;;;;;;5.08;57.19;99027.83;241219;1196;23105;-80
2021/04/22 20:35:51;;;;;;;12.30;5.05;;;;;;;5.02;57.85;99029.59;240993;1196;23087;-79
2021/04/22 20:41:00;;;;;;;17.40;5.27;;;;;;;4.99;58.40;99034.60;241171;1196;23115;-80
2021/04/22 20:46:03;;;;;;;16.73;5.60;;;;;;;5.00;58.79;99036.21;240892;1196;23680;-80
2021/04/22 20:51:08;;;;;;;13.20;5.60;;;;;;;5.00;59.27;99038.88;240946;1196;23127;-78
2021/04/22 20:56:11;;;;;;;16.40;5.70;;;;;;;4.93;59.90;99039.83;241124;1195;23571;-79
2021/04/22 21:01:13;;;;;;;14.30;5.57;;;;;;;4.90;60.33;99055.46;240835;1195;23117;-79
2021/04/22 21:06:16;;;;;;;12.60;5.45;;;;;;;4.85;60.78;99058.83;241156;1196;23321;-79
2021/04/22 21:11:20;;;;;;;15.30;6.10;;;;;;;4.78;60.59;99055.54;241266;1196;23132;-80
2021/04/22 21:16:24;;;;;;;12.77;5.80;;;;;;;4.69;61.58;99054.36;241180;1195;23119;-79
2021/04/22 21:21:31;;;;;;;14.97;9.17;;;;;;;4.60;61.65;99067.20;240933;1195;23071;-81
2021/04/22 21:26:51;;;;;;;20.03;8.43;;;;;;;4.47;61.90;99056.94;240373;1196;23156;-79
2021/04/22 21:31:55;;;;;;;16.00;8.10;;;;;;;4.25;61.70;99066.41;241008;1199;23112;-78
2021/04/22 21:36:59;;;;;;;19.53;8.97;;;;;;;4.19;62.64;99066.55;240523;1199;26000;-78
2021/04/22 21:42:03;;;;;;;22.10;8.45;;;;;;;4.17;62.66;99065.97;240388;1195;25984;-79
2021/04/22 21:47:09;;;;;;;19.75;7.90;;;;;;;4.15;62.81;99070.72;240878;1195;23227;-79
2021/04/22 21:52:23;;;;;;;14.30;6.35;;;;;;;4.12;63.00;99074.65;241345;1194;26025;-80
2021/04/22 21:57:28;;;;;;;14.07;6.53;;;;;;;4.13;63.46;99070.14;241089;1196;23172;-79
2021/04/22 22:02:33;;;;;;;22.80;6.60;;;;;;;4.14;63.38;99071.75;241188;1196;23148;-79
2021/04/22 22:07:36;;;;;;;16.87;7.93;;;;;;;4.05;63.41;99072.14;241328;1195;23193;-79
2021/04/22 22:12:39;;;;;;;15.55;7.20;;;;;;;4.01;63.92;99078.95;241323;1196;22850;-79
2021/04/22 22:17:44;;;;;;;16.97;7.57;;;;;;;3.93;63.66;99085.45;241266;1196;23455;-79
2021/04/22 22:22:47;;;;;;;14.40;6.40;;;;;;;3.85;64.01;99079.73;241259;1195;23244;-79
2021/04/22 22:27:52;;;;;;;20.60;6.70;;;;;;;3.78;64.37;99085.17;241261;1194;23106;-79
2021/04/22 22:32:56;;;;;;;16.80;6.27;;;;;;;3.71;64.86;99101.20;241419;1194;23549;-79
2021/04/22 22:38:00;;;;;;;13.03;5.77;;;;;;;3.65;64.84;99096.03;240706;1196;23108;-79
2021/04/22 22:43:05;;;;;;;13.27;5.63;;;;;;;3.63;65.89;99098.13;241086;1195;25962;-79
2021/04/22 22:48:09;;;;;;;14.83;5.97;;;;;;;3.58;65.36;99099.63;240793;1195;26393;-79
2021/04/22 22:53:13;;;;;;;11.73;5.43;;;;;;;3.48;65.41;99088.02;241178;1196;26393;-79
2021/04/22 22:58:15;;;;;;;14.23;5.40;;;;;;;3.39;65.63;99098.17;241092;1195;23123;-79
2021/04/22 23:03:19;;;;;;;11.80;5.95;;;;;;;3.36;65.44;99098.64;240769;1196;23119;-79
2021/04/22 23:08:23;;;;;;;15.45;5.50;;;;;;;3.34;65.90;99098.05;240696;1196;23106;-78
2021/04/22 23:13:26;;;;;;;11.30;4.93;;;;;;;3.40;66.36;99089.16;241018;1196;23145;-79
2021/04/22 23:18:29;;;;;;;9.47;5.23;;;;;;;3.45;67.21;99093.78;240607;1195;23086;-79
2021/04/22 23:23:33;;;;;;;12.37;5.43;;;;;;;3.41;66.95;99096.08;241059;1194;23107;-79
2021/04/22 23:28:36;;;;;;;14.40;5.23;;;;;;;3.28;66.68;99096.34;241299;1196;23087;-79
2021/04/22 23:33:39;;;;;;;11.15;5.05;;;;;;;3.16;66.76;99102.46;241644;1196;23718;-79
2021/04/22 23:38:44;;;;;;;13.00;5.80;;;;;;;3.04;67.50;99102.45;241155;1196;23119;-79
2021/04/22 23:43:47;;;;;;;12.03;5.27;;;;;;;2.89;67.61;99108.19;241579;1196;23072;-79